sensor_id;sensor_type;location;lat;lon;timestamp;P1;durP1;ratioP1;P2;durP2;ratioP2
49946;SDS011;35839;48.662;13.300;2024-01-15T00:02:11;80.93;;;42.67;;
49946;SDS011;35839;48.662;13.300;2024-01-15T00:04:37;62.20;;;29.20;;
49946;SDS011;35839;48.662;13.300;2024-01-15T00:07:03;60.17;;;28.23;;
49946;SDS011;35839;48.662;13.300;2024-01-15T00:09:29;55.40;;;25.63;;
49946;SDS011;35839;48.662;13.300;2024-01-15T00:11:54;62.27;;;28.90;;
49946;SDS011;35839;48.662;13.300;2024-01-15T00:14:20;64.63;;;28.30;;
49946;SDS011;35839;48.662;13.300;2024-01-15T00:16:45;56.93;;;25.70;;
49946;SDS011;35839;48.662;13.300;2024-01-15T00:19:11;67.17;;;29.63;;
49946;SDS011;35839;48.662;13.300;2024-01-15T00:21:36;62.33;;;28.17;;
49946;SDS011;35839;48.662;13.300;2024-01-15T00:24:02;53.07;;;26.40;;
49946;SDS011;35839;48.662;13.300;2024-01-15T00:26:27;56.37;;;27.37;;
49946;SDS011;35839;48.662;13.300;2024-01-15T00:28:53;55.73;;;26.80;;
49946;SDS011;35839;48.662;13.300;2024-01-15T00:31:18;59.27;;;26.87;;
49946;SDS011;35839;48.662;13.300;2024-01-15T00:33:43;55.60;;;25.47;;
49946;SDS011;35839;48.662;13.300;2024-01-15T00:36:09;51.33;;;25.80;;
49946;SDS011;35839;48.662;13.300;2024-01-15T00:38:34;54.97;;;24.13;;
49946;SDS011;35839;48.662;13.300;2024-01-15T00:40:59;56.47;;;27.03;;
49946;SDS011;35839;48.662;13.300;2024-01-15T00:43:25;58.30;;;25.07;;
49946;SDS011;35839;48.662;13.300;2024-01-15T00:45:50;59.10;;;28.53;;
49946;SDS011;35839;48.662;13.300;2024-01-15T00:48:15;60.37;;;27.40;;
49946;SDS011;35839;48.662;13.300;2024-01-15T00:50:41;64.27;;;30.00;;
49946;SDS011;35839;48.662;13.300;2024-01-15T00:53:06;62.57;;;26.07;;
49946;SDS011;35839;48.662;13.300;2024-01-15T00:55:31;58.53;;;25.97;;
49946;SDS011;35839;48.662;13.300;2024-01-15T00:57:57;49.23;;;23.73;;
49946;SDS011;35839;48.662;13.300;2024-01-15T01:00:22;62.33;;;27.67;;
49946;SDS011;35839;48.662;13.300;2024-01-15T01:02:47;57.33;;;26.23;;
49946;SDS011;35839;48.662;13.300;2024-01-15T01:05:13;55.47;;;24.63;;
49946;SDS011;35839;48.662;13.300;2024-01-15T01:07:38;61.67;;;26.23;;
49946;SDS011;35839;48.662;13.300;2024-01-15T01:10:04;66.73;;;29.57;;
49946;SDS011;35839;48.662;13.300;2024-01-15T01:12:29;61.77;;;28.30;;
49946;SDS011;35839;48.662;13.300;2024-01-15T01:14:55;62.33;;;27.07;;
49946;SDS011;35839;48.662;13.300;2024-01-15T01:17:22;61.67;;;29.17;;
49946;SDS011;35839;48.662;13.300;2024-01-15T01:19:49;69.43;;;31.23;;
49946;SDS011;35839;48.662;13.300;2024-01-15T01:22:14;54.87;;;25.50;;
49946;SDS011;35839;48.662;13.300;2024-01-15T01:24:40;65.13;;;29.40;;
49946;SDS011;35839;48.662;13.300;2024-01-15T01:27:05;61.57;;;26.20;;
49946;SDS011;35839;48.662;13.300;2024-01-15T01:29:31;64.30;;;28.10;;
49946;SDS011;35839;48.662;13.300;2024-01-15T01:31:56;58.47;;;26.10;;
49946;SDS011;35839;48.662;13.300;2024-01-15T01:34:21;56.80;;;26.07;;
49946;SDS011;35839;48.662;13.300;2024-01-15T01:36:47;57.17;;;26.30;;
49946;SDS011;35839;48.662;13.300;2024-01-15T01:39:12;57.83;;;27.47;;
49946;SDS011;35839;48.662;13.300;2024-01-15T01:41:38;61.07;;;26.07;;
49946;SDS011;35839;48.662;13.300;2024-01-15T01:44:04;62.60;;;27.93;;
49946;SDS011;35839;48.662;13.300;2024-01-15T01:46:30;62.77;;;26.87;;
49946;SDS011;35839;48.662;13.300;2024-01-15T01:48:56;71.30;;;28.30;;
49946;SDS011;35839;48.662;13.300;2024-01-15T01:51:22;64.47;;;28.43;;
49946;SDS011;35839;48.662;13.300;2024-01-15T01:53:49;64.73;;;29.40;;
49946;SDS011;35839;48.662;13.300;2024-01-15T01:56:16;67.07;;;27.40;;
49946;SDS011;35839;48.662;13.300;2024-01-15T01:58:43;68.87;;;29.20;;
49946;SDS011;35839;48.662;13.300;2024-01-15T02:01:10;67.83;;;28.83;;
49946;SDS011;35839;48.662;13.300;2024-01-15T02:03:36;61.93;;;29.50;;
49946;SDS011;35839;48.662;13.300;2024-01-15T02:06:02;63.50;;;29.97;;
49946;SDS011;35839;48.662;13.300;2024-01-15T02:08:28;66.53;;;29.97;;
49946;SDS011;35839;48.662;13.300;2024-01-15T02:10:54;63.40;;;29.30;;
49946;SDS011;35839;48.662;13.300;2024-01-15T02:13:19;59.13;;;29.47;;
49946;SDS011;35839;48.662;13.300;2024-01-15T02:15:45;60.60;;;29.60;;
49946;SDS011;35839;48.662;13.300;2024-01-15T02:18:10;54.47;;;25.67;;
49946;SDS011;35839;48.662;13.300;2024-01-15T02:20:36;58.10;;;27.50;;
49946;SDS011;35839;48.662;13.300;2024-01-15T02:23:06;61.70;;;27.30;;
49946;SDS011;35839;48.662;13.300;2024-01-15T02:25:35;64.17;;;27.43;;
49946;SDS011;35839;48.662;13.300;2024-01-15T02:28:00;61.47;;;30.37;;
49946;SDS011;35839;48.662;13.300;2024-01-15T02:30:26;54.47;;;28.03;;
49946;SDS011;35839;48.662;13.300;2024-01-15T02:32:53;56.07;;;27.47;;
49946;SDS011;35839;48.662;13.300;2024-01-15T02:35:19;59.47;;;29.00;;
49946;SDS011;35839;48.662;13.300;2024-01-15T02:37:44;54.60;;;27.43;;
49946;SDS011;35839;48.662;13.300;2024-01-15T02:40:10;54.70;;;27.83;;
49946;SDS011;35839;48.662;13.300;2024-01-15T02:42:36;59.60;;;30.57;;
49946;SDS011;35839;48.662;13.300;2024-01-15T02:45:01;56.17;;;32.13;;
49946;SDS011;35839;48.662;13.300;2024-01-15T02:47:27;63.43;;;30.30;;
49946;SDS011;35839;48.662;13.300;2024-01-15T02:49:52;51.37;;;26.57;;
49946;SDS011;35839;48.662;13.300;2024-01-15T02:52:17;65.20;;;29.73;;
49946;SDS011;35839;48.662;13.300;2024-01-15T02:54:43;60.33;;;26.47;;
49946;SDS011;35839;48.662;13.300;2024-01-15T02:57:08;63.53;;;28.40;;
49946;SDS011;35839;48.662;13.300;2024-01-15T02:59:33;53.23;;;28.63;;
49946;SDS011;35839;48.662;13.300;2024-01-15T03:01:59;61.93;;;27.87;;
49946;SDS011;35839;48.662;13.300;2024-01-15T03:04:24;57.27;;;29.13;;
49946;SDS011;35839;48.662;13.300;2024-01-15T03:06:49;63.87;;;27.63;;
49946;SDS011;35839;48.662;13.300;2024-01-15T03:09:15;56.80;;;26.93;;
49946;SDS011;35839;48.662;13.300;2024-01-15T03:11:40;70.83;;;33.03;;
49946;SDS011;35839;48.662;13.300;2024-01-15T03:14:05;57.70;;;27.27;;
49946;SDS011;35839;48.662;13.300;2024-01-15T03:16:31;58.77;;;26.63;;
49946;SDS011;35839;48.662;13.300;2024-01-15T03:18:56;69.93;;;31.17;;
49946;SDS011;35839;48.662;13.300;2024-01-15T03:21:22;58.37;;;27.63;;
49946;SDS011;35839;48.662;13.300;2024-01-15T03:23:47;60.97;;;26.63;;
49946;SDS011;35839;48.662;13.300;2024-01-15T03:26:12;59.43;;;28.07;;
49946;SDS011;35839;48.662;13.300;2024-01-15T03:28:38;60.57;;;28.47;;
49946;SDS011;35839;48.662;13.300;2024-01-15T03:31:04;63.27;;;27.97;;
49946;SDS011;35839;48.662;13.300;2024-01-15T03:33:29;65.73;;;27.47;;
49946;SDS011;35839;48.662;13.300;2024-01-15T03:35:54;61.90;;;27.60;;
49946;SDS011;35839;48.662;13.300;2024-01-15T03:38:20;64.00;;;27.73;;
49946;SDS011;35839;48.662;13.300;2024-01-15T03:40:45;57.30;;;25.07;;
49946;SDS011;35839;48.662;13.300;2024-01-15T03:43:11;61.40;;;27.13;;
49946;SDS011;35839;48.662;13.300;2024-01-15T03:45:37;62.13;;;30.77;;
49946;SDS011;35839;48.662;13.300;2024-01-15T03:48:02;62.87;;;30.67;;
49946;SDS011;35839;48.662;13.300;2024-01-15T03:50:28;57.30;;;27.30;;
49946;SDS011;35839;48.662;13.300;2024-01-15T03:52:53;65.07;;;30.70;;
49946;SDS011;35839;48.662;13.300;2024-01-15T03:55:18;63.23;;;26.27;;
49946;SDS011;35839;48.662;13.300;2024-01-15T03:57:44;64.23;;;27.93;;
49946;SDS011;35839;48.662;13.300;2024-01-15T04:00:09;57.90;;;25.83;;
49946;SDS011;35839;48.662;13.300;2024-01-15T04:02:35;60.17;;;26.97;;
49946;SDS011;35839;48.662;13.300;2024-01-15T04:05:00;61.93;;;29.97;;
49946;SDS011;35839;48.662;13.300;2024-01-15T04:07:26;61.73;;;25.90;;
49946;SDS011;35839;48.662;13.300;2024-01-15T04:09:51;58.87;;;23.87;;
49946;SDS011;35839;48.662;13.300;2024-01-15T04:12:16;56.27;;;24.73;;
49946;SDS011;35839;48.662;13.300;2024-01-15T04:14:42;61.33;;;27.30;;
49946;SDS011;35839;48.662;13.300;2024-01-15T04:17:07;58.77;;;26.87;;
49946;SDS011;35839;48.662;13.300;2024-01-15T04:19:32;62.20;;;26.00;;
49946;SDS011;35839;48.662;13.300;2024-01-15T04:21:58;62.20;;;25.47;;
49946;SDS011;35839;48.662;13.300;2024-01-15T04:24:23;53.47;;;24.63;;
49946;SDS011;35839;48.662;13.300;2024-01-15T04:26:49;54.57;;;25.20;;
49946;SDS011;35839;48.662;13.300;2024-01-15T04:29:14;55.37;;;28.30;;
49946;SDS011;35839;48.662;13.300;2024-01-15T04:31:39;60.30;;;26.23;;
49946;SDS011;35839;48.662;13.300;2024-01-15T04:34:05;52.87;;;23.87;;
49946;SDS011;35839;48.662;13.300;2024-01-15T04:36:30;52.33;;;23.03;;
49946;SDS011;35839;48.662;13.300;2024-01-15T04:38:55;57.17;;;25.57;;
49946;SDS011;35839;48.662;13.300;2024-01-15T04:41:21;60.13;;;25.30;;
49946;SDS011;35839;48.662;13.300;2024-01-15T04:43:46;59.50;;;26.20;;
49946;SDS011;35839;48.662;13.300;2024-01-15T04:46:11;55.60;;;26.30;;
49946;SDS011;35839;48.662;13.300;2024-01-15T04:48:37;57.13;;;26.33;;
49946;SDS011;35839;48.662;13.300;2024-01-15T04:51:05;58.67;;;26.67;;
49946;SDS011;35839;48.662;13.300;2024-01-15T04:53:34;57.53;;;26.17;;
49946;SDS011;35839;48.662;13.300;2024-01-15T04:55:59;51.17;;;24.03;;
49946;SDS011;35839;48.662;13.300;2024-01-15T04:58:25;57.03;;;26.13;;
49946;SDS011;35839;48.662;13.300;2024-01-15T05:00:52;57.57;;;24.90;;
49946;SDS011;35839;48.662;13.300;2024-01-15T05:03:17;57.33;;;22.93;;
49946;SDS011;35839;48.662;13.300;2024-01-15T05:05:47;51.77;;;24.60;;
49946;SDS011;35839;48.662;13.300;2024-01-15T05:10:38;52.17;;;24.00;;
49946;SDS011;35839;48.662;13.300;2024-01-15T05:13:03;52.00;;;24.53;;
49946;SDS011;35839;48.662;13.300;2024-01-15T05:15:29;53.40;;;25.00;;
49946;SDS011;35839;48.662;13.300;2024-01-15T05:17:54;54.50;;;24.67;;
49946;SDS011;35839;48.662;13.300;2024-01-15T05:20:20;49.23;;;24.60;;
49946;SDS011;35839;48.662;13.300;2024-01-15T05:22:45;53.27;;;22.93;;
49946;SDS011;35839;48.662;13.300;2024-01-15T05:25:10;49.00;;;21.13;;
49946;SDS011;35839;48.662;13.300;2024-01-15T05:27:37;57.77;;;24.37;;
49946;SDS011;35839;48.662;13.300;2024-01-15T05:30:04;50.00;;;22.87;;
49946;SDS011;35839;48.662;13.300;2024-01-15T05:32:30;61.30;;;28.80;;
49946;SDS011;35839;48.662;13.300;2024-01-15T05:34:55;60.57;;;27.50;;
49946;SDS011;35839;48.662;13.300;2024-01-15T05:37:21;53.60;;;26.23;;
49946;SDS011;35839;48.662;13.300;2024-01-15T05:39:46;52.10;;;23.87;;
49946;SDS011;35839;48.662;13.300;2024-01-15T05:42:12;44.77;;;20.73;;
49946;SDS011;35839;48.662;13.300;2024-01-15T05:44:37;47.57;;;22.53;;
49946;SDS011;35839;48.662;13.300;2024-01-15T05:47:02;59.00;;;25.40;;
49946;SDS011;35839;48.662;13.300;2024-01-15T05:49:29;55.30;;;24.43;;
49946;SDS011;35839;48.662;13.300;2024-01-15T05:51:54;54.10;;;23.20;;
49946;SDS011;35839;48.662;13.300;2024-01-15T05:54:20;67.80;;;28.43;;
49946;SDS011;35839;48.662;13.300;2024-01-15T05:56:46;48.40;;;22.40;;
49946;SDS011;35839;48.662;13.300;2024-01-15T05:59:11;53.77;;;24.47;;
49946;SDS011;35839;48.662;13.300;2024-01-15T06:01:36;49.57;;;22.33;;
49946;SDS011;35839;48.662;13.300;2024-01-15T06:04:02;49.43;;;22.47;;
49946;SDS011;35839;48.662;13.300;2024-01-15T06:06:27;46.13;;;22.37;;
49946;SDS011;35839;48.662;13.300;2024-01-15T06:08:52;43.17;;;21.37;;
49946;SDS011;35839;48.662;13.300;2024-01-15T06:11:19;52.63;;;24.90;;
49946;SDS011;35839;48.662;13.300;2024-01-15T06:13:44;50.80;;;21.37;;
49946;SDS011;35839;48.662;13.300;2024-01-15T06:16:14;46.00;;;20.60;;
49946;SDS011;35839;48.662;13.300;2024-01-15T06:18:45;43.67;;;20.30;;
49946;SDS011;35839;48.662;13.300;2024-01-15T06:21:10;57.37;;;24.47;;
49946;SDS011;35839;48.662;13.300;2024-01-15T06:23:37;54.63;;;23.10;;
49946;SDS011;35839;48.662;13.300;2024-01-15T06:26:03;51.93;;;23.10;;
49946;SDS011;35839;48.662;13.300;2024-01-15T06:28:29;47.20;;;21.33;;
49946;SDS011;35839;48.662;13.300;2024-01-15T06:30:54;46.17;;;21.83;;
49946;SDS011;35839;48.662;13.300;2024-01-15T06:33:19;45.73;;;20.67;;
49946;SDS011;35839;48.662;13.300;2024-01-15T06:35:45;43.90;;;21.83;;
49946;SDS011;35839;48.662;13.300;2024-01-15T06:38:10;43.90;;;20.30;;
49946;SDS011;35839;48.662;13.300;2024-01-15T06:40:36;45.00;;;19.70;;
49946;SDS011;35839;48.662;13.300;2024-01-15T06:43:01;45.10;;;20.83;;
49946;SDS011;35839;48.662;13.300;2024-01-15T06:45:26;44.10;;;20.80;;
49946;SDS011;35839;48.662;13.300;2024-01-15T06:47:52;45.70;;;21.30;;
49946;SDS011;35839;48.662;13.300;2024-01-15T06:50:17;46.00;;;21.07;;
49946;SDS011;35839;48.662;13.300;2024-01-15T06:52:42;49.67;;;20.97;;
49946;SDS011;35839;48.662;13.300;2024-01-15T06:55:08;37.07;;;18.80;;
49946;SDS011;35839;48.662;13.300;2024-01-15T06:57:33;43.40;;;21.13;;
49946;SDS011;35839;48.662;13.300;2024-01-15T06:59:58;40.73;;;20.07;;
49946;SDS011;35839;48.662;13.300;2024-01-15T07:02:24;49.70;;;22.27;;
49946;SDS011;35839;48.662;13.300;2024-01-15T07:04:49;34.60;;;18.90;;
49946;SDS011;35839;48.662;13.300;2024-01-15T07:07:15;43.73;;;20.57;;
49946;SDS011;35839;48.662;13.300;2024-01-15T07:09:40;43.23;;;19.43;;
49946;SDS011;35839;48.662;13.300;2024-01-15T07:12:06;40.93;;;18.67;;
49946;SDS011;35839;48.662;13.300;2024-01-15T07:14:31;46.23;;;19.73;;
49946;SDS011;35839;48.662;13.300;2024-01-15T07:16:58;44.70;;;21.27;;
49946;SDS011;35839;48.662;13.300;2024-01-15T07:19:23;47.37;;;21.13;;
49946;SDS011;35839;48.662;13.300;2024-01-15T07:21:49;44.07;;;21.60;;
49946;SDS011;35839;48.662;13.300;2024-01-15T07:24:14;43.63;;;21.47;;
49946;SDS011;35839;48.662;13.300;2024-01-15T07:26:40;43.50;;;18.93;;
49946;SDS011;35839;48.662;13.300;2024-01-15T07:29:05;46.47;;;21.83;;
49946;SDS011;35839;48.662;13.300;2024-01-15T07:31:30;41.57;;;20.33;;
49946;SDS011;35839;48.662;13.300;2024-01-15T07:33:56;39.27;;;19.77;;
49946;SDS011;35839;48.662;13.300;2024-01-15T07:36:21;43.97;;;20.07;;
49946;SDS011;35839;48.662;13.300;2024-01-15T07:38:46;38.33;;;18.50;;
49946;SDS011;35839;48.662;13.300;2024-01-15T07:41:13;41.43;;;20.03;;
49946;SDS011;35839;48.662;13.300;2024-01-15T07:43:38;44.60;;;19.53;;
49946;SDS011;35839;48.662;13.300;2024-01-15T07:46:04;34.37;;;17.90;;
49946;SDS011;35839;48.662;13.300;2024-01-15T07:48:29;34.00;;;16.80;;
49946;SDS011;35839;48.662;13.300;2024-01-15T07:50:54;40.70;;;19.20;;
49946;SDS011;35839;48.662;13.300;2024-01-15T07:53:20;34.87;;;19.03;;
49946;SDS011;35839;48.662;13.300;2024-01-15T07:55:45;36.97;;;18.20;;
49946;SDS011;35839;48.662;13.300;2024-01-15T07:58:11;37.17;;;16.57;;
49946;SDS011;35839;48.662;13.300;2024-01-15T08:00:36;33.60;;;17.37;;
49946;SDS011;35839;48.662;13.300;2024-01-15T08:03:02;42.13;;;18.50;;
49946;SDS011;35839;48.662;13.300;2024-01-15T08:05:28;38.77;;;17.93;;
49946;SDS011;35839;48.662;13.300;2024-01-15T08:07:54;35.77;;;16.43;;
49946;SDS011;35839;48.662;13.300;2024-01-15T08:10:20;40.43;;;18.47;;
49946;SDS011;35839;48.662;13.300;2024-01-15T08:12:45;37.73;;;20.03;;
49946;SDS011;35839;48.662;13.300;2024-01-15T08:15:10;44.87;;;19.47;;
49946;SDS011;35839;48.662;13.300;2024-01-15T08:17:36;36.63;;;17.73;;
49946;SDS011;35839;48.662;13.300;2024-01-15T08:20:01;43.53;;;20.93;;
49946;SDS011;35839;48.662;13.300;2024-01-15T08:22:27;45.53;;;22.47;;
49946;SDS011;35839;48.662;13.300;2024-01-15T08:24:53;41.60;;;20.17;;
49946;SDS011;35839;48.662;13.300;2024-01-15T08:27:20;46.80;;;19.80;;
49946;SDS011;35839;48.662;13.300;2024-01-15T08:29:47;41.10;;;19.87;;
49946;SDS011;35839;48.662;13.300;2024-01-15T08:32:12;45.57;;;19.47;;
49946;SDS011;35839;48.662;13.300;2024-01-15T08:34:40;44.37;;;19.87;;
49946;SDS011;35839;48.662;13.300;2024-01-15T08:37:05;45.97;;;21.87;;
49946;SDS011;35839;48.662;13.300;2024-01-15T08:39:31;40.33;;;18.83;;
49946;SDS011;35839;48.662;13.300;2024-01-15T08:41:56;38.57;;;18.60;;
49946;SDS011;35839;48.662;13.300;2024-01-15T08:44:21;38.17;;;18.70;;
49946;SDS011;35839;48.662;13.300;2024-01-15T08:46:47;38.57;;;18.13;;
49946;SDS011;35839;48.662;13.300;2024-01-15T08:49:12;35.73;;;19.50;;
49946;SDS011;35839;48.662;13.300;2024-01-15T08:51:37;37.27;;;17.27;;
49946;SDS011;35839;48.662;13.300;2024-01-15T08:54:04;34.70;;;16.00;;
49946;SDS011;35839;48.662;13.300;2024-01-15T08:56:29;38.57;;;18.63;;
49946;SDS011;35839;48.662;13.300;2024-01-15T08:58:54;31.73;;;15.67;;
49946;SDS011;35839;48.662;13.300;2024-01-15T09:01:20;34.50;;;16.43;;
49946;SDS011;35839;48.662;13.300;2024-01-15T09:03:46;34.87;;;17.83;;
49946;SDS011;35839;48.662;13.300;2024-01-15T09:06:13;35.67;;;17.10;;
49946;SDS011;35839;48.662;13.300;2024-01-15T09:08:38;36.90;;;16.60;;
49946;SDS011;35839;48.662;13.300;2024-01-15T09:11:04;35.73;;;17.53;;
49946;SDS011;35839;48.662;13.300;2024-01-15T09:13:29;29.53;;;16.37;;
49946;SDS011;35839;48.662;13.300;2024-01-15T09:15:55;32.10;;;16.63;;
49946;SDS011;35839;48.662;13.300;2024-01-15T09:18:21;30.87;;;15.20;;
49946;SDS011;35839;48.662;13.300;2024-01-15T09:20:46;28.17;;;14.60;;
49946;SDS011;35839;48.662;13.300;2024-01-15T09:23:11;26.33;;;13.80;;
49946;SDS011;35839;48.662;13.300;2024-01-15T09:25:37;24.50;;;13.27;;
49946;SDS011;35839;48.662;13.300;2024-01-15T09:28:02;23.23;;;11.73;;
49946;SDS011;35839;48.662;13.300;2024-01-15T09:30:28;21.20;;;12.07;;
49946;SDS011;35839;48.662;13.300;2024-01-15T09:32:53;21.47;;;11.67;;
49946;SDS011;35839;48.662;13.300;2024-01-15T09:35:18;25.17;;;12.63;;
49946;SDS011;35839;48.662;13.300;2024-01-15T09:37:44;20.30;;;10.23;;
49946;SDS011;35839;48.662;13.300;2024-01-15T09:40:12;21.37;;;8.87;;
49946;SDS011;35839;48.662;13.300;2024-01-15T09:42:41;22.87;;;11.00;;
49946;SDS011;35839;48.662;13.300;2024-01-15T09:45:07;21.40;;;11.80;;
49946;SDS011;35839;48.662;13.300;2024-01-15T09:47:34;17.73;;;10.67;;
49946;SDS011;35839;48.662;13.300;2024-01-15T09:50:01;26.70;;;10.03;;
49946;SDS011;35839;48.662;13.300;2024-01-15T09:52:29;17.70;;;9.67;;
49946;SDS011;35839;48.662;13.300;2024-01-15T09:54:55;22.63;;;11.27;;
49946;SDS011;35839;48.662;13.300;2024-01-15T09:57:22;19.60;;;10.70;;
49946;SDS011;35839;48.662;13.300;2024-01-15T09:59:48;16.20;;;9.30;;
49946;SDS011;35839;48.662;13.300;2024-01-15T10:02:14;18.57;;;10.37;;
49946;SDS011;35839;48.662;13.300;2024-01-15T10:04:42;14.83;;;8.63;;
49946;SDS011;35839;48.662;13.300;2024-01-15T10:07:08;17.00;;;8.83;;
49946;SDS011;35839;48.662;13.300;2024-01-15T10:09:34;18.27;;;9.37;;
49946;SDS011;35839;48.662;13.300;2024-01-15T10:12:00;19.03;;;9.70;;
49946;SDS011;35839;48.662;13.300;2024-01-15T10:14:26;13.53;;;7.23;;
49946;SDS011;35839;48.662;13.300;2024-01-15T10:16:51;15.73;;;8.77;;
49946;SDS011;35839;48.662;13.300;2024-01-15T10:19:17;14.97;;;8.53;;
49946;SDS011;35839;48.662;13.300;2024-01-15T10:21:42;14.87;;;8.77;;
49946;SDS011;35839;48.662;13.300;2024-01-15T10:24:08;13.90;;;7.60;;
49946;SDS011;35839;48.662;13.300;2024-01-15T10:26:33;14.67;;;8.20;;
49946;SDS011;35839;48.662;13.300;2024-01-15T10:28:59;12.30;;;7.20;;
49946;SDS011;35839;48.662;13.300;2024-01-15T10:31:25;14.37;;;8.60;;
49946;SDS011;35839;48.662;13.300;2024-01-15T10:33:51;13.20;;;6.70;;
49946;SDS011;35839;48.662;13.300;2024-01-15T10:36:17;14.13;;;7.90;;
49946;SDS011;35839;48.662;13.300;2024-01-15T10:38:43;14.23;;;7.43;;
49946;SDS011;35839;48.662;13.300;2024-01-15T10:41:09;14.90;;;6.60;;
49946;SDS011;35839;48.662;13.300;2024-01-15T10:43:35;13.00;;;6.67;;
49946;SDS011;35839;48.662;13.300;2024-01-15T10:46:01;13.67;;;7.60;;
49946;SDS011;35839;48.662;13.300;2024-01-15T10:48:27;13.23;;;6.87;;
49946;SDS011;35839;48.662;13.300;2024-01-15T10:50:55;13.20;;;6.73;;
49946;SDS011;35839;48.662;13.300;2024-01-15T10:53:21;13.63;;;7.10;;
49946;SDS011;35839;48.662;13.300;2024-01-15T10:55:48;13.70;;;6.57;;
49946;SDS011;35839;48.662;13.300;2024-01-15T10:58:15;15.80;;;7.63;;
49946;SDS011;35839;48.662;13.300;2024-01-15T11:00:41;17.13;;;8.53;;
49946;SDS011;35839;48.662;13.300;2024-01-15T11:03:08;22.50;;;7.87;;
49946;SDS011;35839;48.662;13.300;2024-01-15T11:05:34;13.93;;;7.43;;
49946;SDS011;35839;48.662;13.300;2024-01-15T11:08:04;15.47;;;7.87;;
49946;SDS011;35839;48.662;13.300;2024-01-15T11:10:41;13.13;;;7.00;;
49946;SDS011;35839;48.662;13.300;2024-01-15T11:18:29;8.33;;;4.67;;
49946;SDS011;35839;48.662;13.300;2024-01-15T11:23:47;7.53;;;5.30;;
49946;SDS011;35839;48.662;13.300;2024-01-15T11:26:37;9.77;;;5.47;;
49946;SDS011;35839;48.662;13.300;2024-01-15T11:29:51;9.05;;;5.10;;
49946;SDS011;35839;48.662;13.300;2024-01-15T11:34:19;13.07;;;5.13;;
49946;SDS011;35839;48.662;13.300;2024-01-15T11:42:01;11.83;;;6.33;;
49946;SDS011;35839;48.662;13.300;2024-01-15T11:44:30;11.60;;;6.93;;
49946;SDS011;35839;48.662;13.300;2024-01-15T11:47:02;9.53;;;5.10;;
49946;SDS011;35839;48.662;13.300;2024-01-15T11:52:21;11.07;;;4.63;;
49946;SDS011;35839;48.662;13.300;2024-01-15T11:57:46;8.95;;;4.72;;
49946;SDS011;35839;48.662;13.300;2024-01-15T12:00:14;8.53;;;4.10;;
49946;SDS011;35839;48.662;13.300;2024-01-15T12:02:44;7.53;;;4.20;;
49946;SDS011;35839;48.662;13.300;2024-01-15T12:05:11;6.57;;;4.53;;
49946;SDS011;35839;48.662;13.300;2024-01-15T12:07:41;8.57;;;4.03;;
49946;SDS011;35839;48.662;13.300;2024-01-15T12:10:11;8.07;;;4.37;;
49946;SDS011;35839;48.662;13.300;2024-01-15T12:15:18;9.20;;;3.80;;
49946;SDS011;35839;48.662;13.300;2024-01-15T12:17:44;8.53;;;3.87;;
49946;SDS011;35839;48.662;13.300;2024-01-15T12:20:10;7.60;;;4.40;;
49946;SDS011;35839;48.662;13.300;2024-01-15T12:22:37;8.77;;;3.70;;
49946;SDS011;35839;48.662;13.300;2024-01-15T12:25:04;6.87;;;3.90;;
49946;SDS011;35839;48.662;13.300;2024-01-15T12:27:30;6.70;;;3.40;;
49946;SDS011;35839;48.662;13.300;2024-01-15T12:29:56;7.60;;;4.30;;
49946;SDS011;35839;48.662;13.300;2024-01-15T12:32:23;9.20;;;4.53;;
49946;SDS011;35839;48.662;13.300;2024-01-15T12:34:50;7.77;;;4.43;;
49946;SDS011;35839;48.662;13.300;2024-01-15T12:37:17;10.00;;;4.63;;
49946;SDS011;35839;48.662;13.300;2024-01-15T12:39:44;5.23;;;2.77;;
49946;SDS011;35839;48.662;13.300;2024-01-15T12:42:09;8.27;;;4.03;;
49946;SDS011;35839;48.662;13.300;2024-01-15T12:44:35;8.23;;;4.77;;
49946;SDS011;35839;48.662;13.300;2024-01-15T12:47:03;8.77;;;4.33;;
49946;SDS011;35839;48.662;13.300;2024-01-15T12:49:29;7.07;;;4.30;;
49946;SDS011;35839;48.662;13.300;2024-01-15T12:51:58;10.03;;;4.07;;
49946;SDS011;35839;48.662;13.300;2024-01-15T12:54:24;7.72;;;4.22;;
49946;SDS011;35839;48.662;13.300;2024-01-15T12:56:51;8.70;;;3.80;;
49946;SDS011;35839;48.662;13.300;2024-01-15T12:59:17;7.10;;;3.87;;
49946;SDS011;35839;48.662;13.300;2024-01-15T13:01:43;8.43;;;3.90;;
49946;SDS011;35839;48.662;13.300;2024-01-15T13:04:09;7.37;;;4.13;;
49946;SDS011;35839;48.662;13.300;2024-01-15T13:06:35;7.53;;;4.60;;
49946;SDS011;35839;48.662;13.300;2024-01-15T13:09:00;7.47;;;3.80;;
49946;SDS011;35839;48.662;13.300;2024-01-15T13:11:26;7.97;;;4.13;;
49946;SDS011;35839;48.662;13.300;2024-01-15T13:13:52;5.37;;;3.60;;
49946;SDS011;35839;48.662;13.300;2024-01-15T13:16:17;8.50;;;4.30;;
49946;SDS011;35839;48.662;13.300;2024-01-15T13:18:45;6.77;;;4.53;;
49946;SDS011;35839;48.662;13.300;2024-01-15T13:21:11;10.57;;;5.13;;
49946;SDS011;35839;48.662;13.300;2024-01-15T13:23:37;6.47;;;3.43;;
49946;SDS011;35839;48.662;13.300;2024-01-15T13:26:04;6.70;;;4.70;;
49946;SDS011;35839;48.662;13.300;2024-01-15T13:28:30;8.97;;;4.03;;
49946;SDS011;35839;48.662;13.300;2024-01-15T13:30:55;10.33;;;4.60;;
49946;SDS011;35839;48.662;13.300;2024-01-15T13:33:21;9.63;;;4.13;;
49946;SDS011;35839;48.662;13.300;2024-01-15T13:35:46;7.37;;;3.83;;
49946;SDS011;35839;48.662;13.300;2024-01-15T13:38:14;6.93;;;3.90;;
49946;SDS011;35839;48.662;13.300;2024-01-15T13:40:40;7.93;;;4.50;;
49946;SDS011;35839;48.662;13.300;2024-01-15T13:43:05;7.20;;;3.87;;
49946;SDS011;35839;48.662;13.300;2024-01-15T13:45:33;5.17;;;3.20;;
49946;SDS011;35839;48.662;13.300;2024-01-15T13:48:02;5.68;;;3.60;;
49946;SDS011;35839;48.662;13.300;2024-01-15T13:50:30;8.67;;;4.00;;
49946;SDS011;35839;48.662;13.300;2024-01-15T13:52:56;7.03;;;4.27;;
49946;SDS011;35839;48.662;13.300;2024-01-15T13:55:25;7.20;;;3.83;;
49946;SDS011;35839;48.662;13.300;2024-01-15T13:57:51;8.50;;;3.83;;
49946;SDS011;35839;48.662;13.300;2024-01-15T14:00:16;7.13;;;3.43;;
49946;SDS011;35839;48.662;13.300;2024-01-15T14:02:45;6.00;;;3.40;;
49946;SDS011;35839;48.662;13.300;2024-01-15T14:05:11;6.13;;;3.60;;
49946;SDS011;35839;48.662;13.300;2024-01-15T14:07:40;8.50;;;3.97;;
49946;SDS011;35839;48.662;13.300;2024-01-15T14:10:08;6.10;;;3.13;;
49946;SDS011;35839;48.662;13.300;2024-01-15T14:12:34;7.67;;;3.43;;
49946;SDS011;35839;48.662;13.300;2024-01-15T14:15:01;6.90;;;4.23;;
49946;SDS011;35839;48.662;13.300;2024-01-15T14:17:28;7.77;;;3.80;;
49946;SDS011;35839;48.662;13.300;2024-01-15T14:19:53;6.77;;;3.63;;
49946;SDS011;35839;48.662;13.300;2024-01-15T14:22:19;7.23;;;3.50;;
49946;SDS011;35839;48.662;13.300;2024-01-15T14:24:44;8.30;;;4.27;;
49946;SDS011;35839;48.662;13.300;2024-01-15T14:27:09;6.63;;;4.23;;
49946;SDS011;35839;48.662;13.300;2024-01-15T14:29:35;5.87;;;3.47;;
49946;SDS011;35839;48.662;13.300;2024-01-15T14:32:01;6.47;;;3.40;;
49946;SDS011;35839;48.662;13.300;2024-01-15T14:34:27;7.53;;;4.17;;
49946;SDS011;35839;48.662;13.300;2024-01-15T14:36:53;6.37;;;3.70;;